• Join FlightAware (Why Join?)
  • Login
  • US Flag 
03:54AM EST


 

Airport Tracker/Info


-or-


 

Live Flight TrackerFlight Track Log ✈ N678H ✈ 26-Aug-2014 ✈ KASG - M18

Flight Track Log - Related Links

Times and Time Zones

All times are in EDT time to prevent confusion due to time zone crossing. See the N678H flight status page for this flight to view local times or setup timezone preferences in your user account.

Time Position Orientation Groundspeed Altitude Reporting Facility
EDT Latitude Longitude Course Direction KTS MPH feet Rate Location/Type
03:13PM 36.0831 -94.1058 172° South 100 115 3,700  Level Memphis Center
03:14PM 36.0506 -94.1119 189° South 112 129 4,500 780 Climbing Memphis Center
03:15PM 36.0192 -94.1081 174° South 122 140 5,400 720 Climbing Memphis Center
03:16PM 35.9446 -94.0723 171° South  Level FlightAware Approximate
03:16PM 35.9867 -94.0983 166° South 120 138 6,000  Level Memphis Center
03:17PM 35.8999 -94.0639 172° South  Level FlightAware Approximate
03:17PM 35.9500 -94.0922 172° South 124 143 6,800  Level Memphis Center
03:18PM 35.8552 -94.0564 172° South  Level FlightAware Approximate
03:18PM 35.9142 -94.0889 176° South 125 144 7,500  Level Memphis Center
03:19PM 35.8728 -94.0806 171° South 126 145 8,600 900 Climbing Memphis Center
03:20PM 35.8389 -94.0700 166° South 125 144 9,400 720 Climbing Memphis Center
03:21PM 35.8039 -94.0614 169° South 126 145 10,200 720 Climbing Memphis Center
03:22PM 35.7692 -94.0503 165° South 126 145 11,000 720 Climbing Memphis Center
03:23PM 35.7328 -94.0433 171° South 127 146 11,700 720 Climbing Memphis Center
03:24PM 35.6931 -94.0328 168° South 128 147 12,500 660 Climbing Memphis Center
03:25PM 35.6575 -94.0250 170° South 128 147 13,100 180 Climbing Memphis Center
03:26PM 35.6131 -94.0153 170° South 149 171 12,900 -60 Descending Memphis Center
03:27PM 35.5664 -94.0064 171° South 164 189 13,000  Climbing Memphis Center
03:28PM 35.5189 -93.9961 170° South 167 192 12,900  Descending Memphis Center
03:29PM 35.4639 -93.9847 170° South 167 192 13,100 420 Climbing Memphis Center
03:30PM 35.4242 -93.9775 172° South 155 178 13,800 480 Climbing Memphis Center
03:31PM 35.3892 -93.9694 169° South 135 155 14,200 360 Climbing Memphis Center
03:32PM 35.3519 -93.9594 168° South 135 155 14,600 300 Climbing Memphis Center
03:33PM 35.3186 -93.9403 155° Southeast 135 155 14,900 180 Climbing Memphis Center
03:34PM 35.2739 -93.9192 159° South 139 160 15,000  Climbing Memphis Center
03:35PM 35.2336 -93.8989 158° South 152 175 14,900 -60 Descending Memphis Center
03:36PM 35.1892 -93.8758 157° South 166 191 14,900  Level Memphis Center
03:37PM 35.1461 -93.8611 164° South 165 190 14,900  Level Memphis Center
03:39PM 35.0975 -93.8489 168° South 173 199 14,900  Level Memphis Center
03:40PM 35.0503 -93.8378 169° South 173 199 14,900  Level Memphis Center
03:41PM 34.9936 -93.8256 170° South 173 199 14,900  Level Memphis Center
03:42PM 34.9461 -93.8136 168° South 173 199 14,900  Level Memphis Center
03:43PM 34.8986 -93.8028 169° South 173 199 14,900  Level Memphis Center
03:44PM 34.8511 -93.7933 171° South 173 199 14,900  Level Memphis Center
03:45PM 34.8036 -93.7822 169° South 174 200 14,900  Level Memphis Center
03:46PM 34.7447 -93.7794 178° South 174 200 14,900  Level Memphis Center
03:47PM 34.6975 -93.7692 170° South 174 200 14,900  Level Memphis Center
03:48PM 34.6472 -93.7642 175° South 175 201 14,900  Level Memphis Center
03:49PM 34.5969 -93.7614 177° South 178 205 14,900  Level Memphis Center
03:50PM 34.5497 -93.7611 180° South 176 203 14,900  Level Memphis Center
03:51PM 34.5017 -93.7572 176° South 175 201 14,900  Level Memphis Center
03:52PM 34.4436 -93.7483 173° South 175 201 14,900  Level Memphis Center
03:53PM 34.3958 -93.7414 173° South 174 200 14,900  Level Memphis Center
03:54PM 34.3489 -93.7350 174° South 173 199 14,900  Level Memphis Center
03:55PM 34.3044 -93.7294 174° South 170 196 14,900  Level Memphis Center
03:56PM 34.2581 -93.7242 175° South 170 196 14,900 -540 Level Memphis Center
03:57PM 34.1972 -93.7178 175° South 179 206 13,900 -1,500 Descending Memphis Center
03:58PM 34.1356 -93.7108 175° South 214 246 11,900 -1,920 Descending Memphis Center
03:59PM 34.0717 -93.7019 173° South 224 258 9,900 -1,920 Descending Memphis Center
04:00PM 34.0064 -93.6956 175° South 232 267 7,900 -1,800 Descending Memphis Center
04:01PM 33.9436 -93.6864 173° South 231 266 6,300 -1,980 Descending Memphis Center
04:02PM 33.8711 -93.6769 174° South 224 258 3,900 -2,340 Descending Memphis Center